Friday, November 17, 2017, 2:35 PM EST
Back to Local

KGTB, Fort Drum / Wheeler-sack U. S. Army Airfield

Location: Fort Drum, NY, United States Lat: 44.05
Local Time: 2:35 PM EST (19:35 GMT) Lon: -75.733
Time Zone: US/Eastern Elev: 679 ft

Show me the last for .
Show Decoded

2017-11-17 13:56 METAR KGTB 171856Z AUTO 31008KT 10SM CLR 00/M09 A3013 RMK AO2 SLP212 T00031092 $
                 =
2017-11-17 12:56 METAR KGTB 171756Z AUTO 28007KT 10SM CLR M01/M09 A3012 RMK AO2 SLP209 T10061093
                 11005 21040 57013 $ =
2017-11-17 11:56 METAR KGTB 171656Z AUTO 30008KT 10SM CLR M01/M09 A3015 RMK AO2 SLP218 T10121089
                 $ =
2017-11-17 10:56 METAR KGTB 171556Z AUTO 31005KT 10SM CLR M02/M08 A3015 RMK AO2 SLP219 T10191084
                 $ =
2017-11-17 09:56 METAR KGTB 171456Z AUTO 33006KT 10SM SCT022 M03/M09 A3016 RMK AO2 SLP222
                 T10291090 52009 $ =
2017-11-17 09:41 METAR KGTB 171441Z AUTO 32005KT 10SM SCT020 M04/M09 A3016 RMK AO2 SLP222 $ =
2017-11-17 09:36 METAR KGTB 171436Z AUTO 32006KT 10SM BKN020 M04/M10 A3016 RMK AO2 SLP222 $ =
2017-11-17 08:56 METAR KGTB 171356Z AUTO 32006KT 10SM OVC019 M03/M08 A3016 RMK AO2 SLP222
                 T10321077 $ =
2017-11-17 08:26 METAR KGTB 171326Z AUTO 32005KT 10SM OVC019 M03/M08 A3016 RMK AO2 SLP222 CHINO
                 RWY03 $ =
2017-11-17 07:56 METAR KGTB 171256Z AUTO 35006KT 10SM OVC020 M03/M08 A3015 RMK AO2 SLP218
                 T10341077 CHINO RWY03 $ =
2017-11-17 06:56 METAR KGTB 171156Z AUTO 33005KT 10SM OVC021 M03/M08 A3014 RMK AO2 SLP215 70042
                 T10311076 11007 21031 52029 CHINO RWY03 $ =
2017-11-17 05:56 METAR KGTB 171056Z AUTO 33006KT 10SM OVC021 M03/M07 A3011 RMK AO2 SLP205
                 T10281073 CHINO RWY03 $ =
2017-11-17 04:56 METAR KGTB 170956Z AUTO 33007G14KT 10SM OVC022 M02/M07 A3008 RMK AO2 SLP194
                 T10221068 CHINO RWY03 $ =
2017-11-17 03:56 METAR KGTB 170856Z AUTO 32008KT 10SM OVC022 M02/M06 A3005 RMK AO2 SLP183
                 T10171063 52023 CHINO RWY03 $ =
2017-11-17 02:56 METAR KGTB 170756Z AUTO 31008G15KT 10SM OVC023 M01/M06 A3002 RMK AO2 SLP173
                 T10131057 CHINO RWY03 $ =
2017-11-17 01:56 METAR KGTB 170656Z AUTO 34007KT 10SM OVC023 M01/M05 A3000 RMK AO2 SLPNO
                 T10111055 CHINO RWY03 $ =
2017-11-17 00:56 METAR KGTB 170556Z AUTO 32013G19KT 10SM OVC022 M01/M05 A2998 RMK AO2 SLPNO 60001
                 T10071051 10026 21007 52025 CHINO RWY03 $ =
2017-11-16 23:56 METAR KGTB 170456Z AUTO 31009G16KT 10SM OVC024 00/M04 A2995 RMK AO2 SLPNO
                 T00001043 400800000 CHINO RWY03 $ =
2017-11-16 22:56 METAR KGTB 170356Z AUTO 31007G16KT 10SM OVC023 01/M03 A2992 RMK AO2 SLPNO
                 T00061035 CHINO RWY03 $ =
2017-11-16 21:56 METAR KGTB 170256Z AUTO 32006KT 10SM OVC024 01/M03 A2990 RMK AO2 SNE08 SLPNO
                 P0000 60001 T00091029 52031 CHINO RWY03 $ =
2017-11-16 21:08 METAR KGTB 170208Z 31009G16KT 10SM SCT013 BKN024 OVC029 01/M02 A2988 RMK AO2A
                 SNE08 CIG 014V024 BKN V OVC SLP124 CHINO RWY03 $ =
2017-11-16 21:06 METAR KGTB 170206Z 30009KT 10SM -SN SCT013 OVC024 01/M02 A2987 RMK AO2A CIG
                 014V024 SLP121 CHINO RWY03 $ =
2017-11-16 21:01 METAR KGTB 170201Z 31007KT 10SM -SN BKN014 BKN019 OVC026 01/M01 A2987 RMK AO2A
                 CIG 014V019 SLP121 CHINO RWY03 $ =
2017-11-16 20:56 METAR KGTB 170156Z COR 29005KT 10SM -SN SCT013 BKN019 OVC026 01/M01 A2987 RMK
                 AO2A RAB17E31SNB31 CIG 012V019 SLP121 P0000 T00111007 CHINO RWY03 $ COR 0225 =
2017-11-16 20:46 METAR KGTB 170146Z COR 30006G15KT 8SM -SN BKN014 BKN020 BKN026 01/M01 A2986 RMK
                 AO2A RAB17E31SNB31 CIG 014V024 SLP117 CHINO RWY03 $ COR 0225 =
2017-11-16 20:41 METAR KGTB 170141Z COR 31009G17KT 9SM -SN BKN016 BKN025 02/M01 A2986 RMK AO2A
                 RAB17E31SNB31 CIG 016V024 BKN016 V FEW SLP117 CHINO RWY03 $ COR 0145
2017-11-16 20:36 METAR KGTB 170136Z 32011G17KT 10SM -SN SCT018 BKN024 02/M01 A2986 RMK AO2A
                 RAB17E31SNB31 SLP117 CHINO RWY03 $ =
2017-11-16 20:31 METAR KGTB 170131Z 30007G17KT 10SM FEW016 BKN024 02/M01 A2985 RMK AO2A RAB17E31
                 SLP113 CHINO RWY03 $ =
2017-11-16 20:17 METAR KGTB 170117Z 31010G20KT 10SM -RA FEW018 BKN024 02/M01 A2985 RMK AO2A RAB17
                 SLP113 CHINO RWY03 $ =
2017-11-16 19:56 METAR KGTB 170056Z 29008G16KT 10SM FEW017 BKN024 02/00 A2983 RMK AO2A
                 DZE15RAB15E20RAB36E47 SLP107 P0001 T00241005 CHINO RWY03 $ =
2017-11-16 19:47 METAR KGTB 170047Z 31009G19KT 10SM SCT016 BKN022 BKN029 03/00 A2983 RMK AO2A
                 DZE15RAB15E20RAB36E47 CIG 014V022 SLP107 CHINO RWY03 $ =
2017-11-16 19:41 METAR KGTB 170041Z 30011G19KT 10SM -RA SCT014 OVC021 03/00 A2983 RMK AO2A
                 DZE15RAB15E20RAB36 CIG 013V021 SLP107 CHINO RWY03 $ =
2017-11-16 19:36 METAR KGTB 170036Z 29009KT 10SM -RA BKN014 OVC021 03/01 A2982 RMK AO2A
                 DZE15RAB15E20RAB36 CIG 013V021 SLP103 CHINO RWY03 $ =
2017-11-16 19:20 METAR KGTB 170020Z 27007KT 10SM BKN011 OVC018 03/01 A2981 RMK AO2A DZE15RAB15E20
                 SLP100 CHINO RWY03 $ =
2017-11-16 18:56 METAR KGTB 162356Z 28009KT 10SM -DZ BKN013 03/01 A2981 RMK AO2A RAE42DZB42
                 SLP100 P0001 60016 T00250012 10057 20025 52042 CHINO RWY03 $ =
2017-11-16 18:49 METAR KGTB 162349Z 28009KT 10SM -DZ BKN013 03/01 A2980 RMK AO2A RAE42DZB42 CIG
                 009V015 SLP096 CHINO RWY03 $ =
2017-11-16 18:44 METAR KGTB 162344Z 28007KT 10SM -DZ BKN011 03/01 A2980 RMK AO2A RAE42DZB42
                 SLP096 CHINO RWY03 $ =
2017-11-16 18:31 METAR KGTB 162331Z 30007G15KT 10SM -RA BKN009 OVC016 03/01 A2980 RMK AO2A BKN V
                 OVC SLP096 CHINO RWY03 $ =
2017-11-16 18:23 METAR KGTB 162323Z 28008KT 10SM -RA OVC009 03/01 A2980 RMK AO2A SLP096 CHINO
                 RWY03 $ =
2017-11-16 18:13 METAR KGTB 162313Z 28010KT 10SM -RA BKN010 OVC016 03/01 A2979 RMK AO2A SLP093
                 CHINO RWY03 $ =
2017-11-16 18:01 METAR KGTB 162301Z AUTO 29009G15KT 10SM R21/5500FT -RA BKN012 OVC017 03/01 A2978
                 RMK AO2 SLP090 CHINO RWY03 $ =
2017-11-16 17:56 METAR KGTB 162256Z AUTO 28010G15KT 10SM -RA BKN014 03/01 A2978 RMK AO2 PK WND
                 29026/2159 DZB2159E02RAB02 PRESRR SLP090 P0001 T00290013 CHINO RWY03 $ =
2017-11-16 17:14 METAR KGTB 162214Z AUTO 29010G18KT 10SM -RA OVC014 04/02 A2973 RMK AO2
                 DZB2159E02RAB02 PRESRR SLP073 CHINO RWY03 $ =
2017-11-16 16:59 METAR KGTB 162159Z AUTO 28012G20KT 10SM -DZ OVC015 05/03 A2971 RMK AO2 DZB59
                 SLP066 CHINO RWY03 $ =
2017-11-16 16:56 METAR KGTB 162156Z AUTO 28008G17KT 10SM OVC015 05/03 A2971 RMK AO2 PK WND
                 25030/30 DZE03RAB09E21DZB21E26RAB26E46 SLP066 P0001 T00460026 CHINO RWY03 $ =
2017-11-16 16:46 METAR KGTB 162146Z AUTO 27009G20KT 10SM BKN016 BKN036 05/03 A2970 RMK AO2
                 DZE03RAB09E21DZB21E26RAB26E46 SLP062 CHINO RWY03 $ =
2017-11-16 16:44 METAR KGTB 162144Z AUTO 28013G20KT 10SM -RA BKN016 OVC036 05/03 A2970 RMK AO2
                 DZE03RAB09E21DZB21E26RAB26 SLP062 CHINO RWY03 $ =
2017-11-16 16:34 METAR KGTB 162134Z AUTO 28013G22KT 9SM -RA BKN014 OVC021 05/03 A2969 RMK AO2
                 DZE03RAB09E21DZB21E26RAB26 CIG 014V020 BKN V SCT SLP059 CHINO RWY03 $ =
2017-11-16 16:29 METAR KGTB 162129Z AUTO 27014G21KT 10SM -RA BKN016 BKN022 OVC033 05/04 A2969 RMK
                 AO2 DZE03RAB09E21DZB21E26RAB26 CIG 016V020 SLP059 CHINO RWY03 $ =
2017-11-16 16:09 METAR KGTB 162109Z AUTO 24007KT 10SM -RA FEW013 BKN022 BKN029 05/04 A2968 RMK
                 AO2 DZE03RAB09 CIG 021V029 SLP056 CHINO RWY03 $ =
2017-11-16 16:03 METAR KGTB 162103Z AUTO 24010KT 10SM FEW013 SCT019 SCT024 BKN029 05/04 A2968 RMK
                 AO2 DZE03 CIG 021V029 SLP056 CHINO RWY03 $ =
2017-11-16 15:56 METAR KGTB 162056Z AUTO 23011KT 10SM -DZ FEW010 SCT014 BKN021 BKN031 05/04 A2968
                 RMK AO2 PK WND 24030/28 RAE52DZB52 CIG 013V021 SLP056 P0004 60013 T00510038
                 CHINO RWY03 $ =
2017-11-16 15:45 METAR KGTB 162045Z AUTO 25011KT 10SM -RA BKN013 OVC022 05/04 A2968 RMK AO2 CIG
                 012V022 BKN V SCT SLP056 CHINO RWY03 $ =
2017-11-16 15:40 METAR KGTB 162040Z AUTO 24010G25KT 9SM -RA FEW004 SCT013 OVC022 05/03 A2968 RMK
                 AO2 CIG 012V022 SLP056 CHINO RWY03 $ =
2017-11-16 15:30 METAR KGTB 162030Z AUTO 25013G25KT 9SM -RA FEW004 BKN012 OVC022 05/04 A2968 RMK
                 AO2 SLP056 CHINO RWY03 $ =
2017-11-16 15:10 METAR KGTB 162010Z AUTO 25013G21KT 9SM -RA OVC014 06/04 A2968 RMK AO2 OVC V BKN
                 SLP056 CHINO RWY03 $ =
2017-11-16 14:56 METAR KGTB 161956Z AUTO 27010KT 10SM -RA BKN016 OVC023 06/04 A2967 RMK AO2 PK
                 WND 26026/08 P0001 CHINO RWY03 =

Support USWX by starting your Amazon purchase here.